Time;durP1;ratioP1;P1;durP2;ratioP2;P2;SDS_P1;SDS_P2;PMS_P1;PMS_P2;Temp;Humidity;BMP_temperature;BMP_pressure;BME280_temperature;BME280_humidity;BME280_pressure;Samples;Min_cycle;Max_cycle;Signal;HPM_P1;HPM_P2
2023/05/08 00:00:30;;;;;;;3.50;2.60;;;;;;;13.16;55.04;94955.44;5070471;28;20032;-72
2023/05/08 00:02:55;;;;;;;3.80;2.75;;;;;;;13.23;54.79;94946.06;5071334;28;20047;-72
2023/05/08 00:05:20;;;;;;;5.05;2.63;;;;;;;13.31;54.68;94956.66;5054884;28;20039;-73
2023/05/08 00:07:46;;;;;;;5.55;2.88;;;;;;;13.30;54.65;94959.44;5089498;28;20067;-73
2023/05/08 00:10:11;;;;;;;3.85;2.45;;;;;;;13.24;55.11;94957.34;5071743;28;20035;-72
2023/05/08 00:12:37;;;;;;;3.30;2.60;;;;;;;13.28;55.03;94962.16;5072323;28;20042;-73
2023/05/08 00:15:03;;;;;;;5.32;3.10;;;;;;;12.96;57.04;94958.06;5072208;28;20092;-72
2023/05/08 00:17:28;;;;;;;6.90;2.92;;;;;;;12.94;56.74;94961.75;5072747;28;20048;-73
2023/05/08 00:19:54;;;;;;;3.85;3.03;;;;;;;12.79;58.40;94956.16;5072529;28;20490;-72
2023/05/08 00:22:19;;;;;;;5.43;3.00;;;;;;;12.77;58.68;94970.28;5054812;28;20111;-72
2023/05/08 00:24:45;;;;;;;7.18;3.35;;;;;;;12.65;59.95;94970.41;5055860;28;20028;-72
2023/05/08 00:27:11;;;;;;;5.57;3.05;;;;;;;12.67;57.73;94962.44;5090686;28;20027;-72
2023/05/08 00:29:39;;;;;;;4.30;3.13;;;;;;;12.70;58.42;94968.22;5055915;28;20035;-73
2023/05/08 00:32:05;;;;;;;4.15;3.00;;;;;;;12.64;59.17;94960.09;5072776;28;20055;-73
2023/05/08 00:34:30;;;;;;;4.28;2.97;;;;;;;12.67;58.96;94967.66;5055817;28;20036;-73
2023/05/08 00:36:56;;;;;;;3.90;2.50;;;;;;;12.62;58.70;94964.63;5059173;28;20462;-73
2023/05/08 00:39:22;;;;;;;5.22;2.95;;;;;;;12.59;57.61;94959.69;5094139;28;20031;-72
2023/05/08 00:41:47;;;;;;;4.18;2.92;;;;;;;12.72;57.03;94971.50;5075823;28;20028;-73
2023/05/08 00:44:13;;;;;;;3.78;2.80;;;;;;;12.47;58.18;94961.59;5076056;28;20032;-72
2023/05/08 00:46:38;;;;;;;5.38;3.00;;;;;;;12.43;60.33;94960.22;5075966;28;20043;-73
2023/05/08 00:49:04;;;;;;;4.70;2.83;;;;;;;12.36;58.76;94964.31;5059217;28;20031;-72
2023/05/08 00:51:30;;;;;;;3.67;2.88;;;;;;;12.29;58.47;94974.47;5059109;28;20031;-73
2023/05/08 00:53:56;;;;;;;4.10;3.00;;;;;;;12.36;58.43;94972.94;5075660;28;20567;-73
2023/05/08 00:56:21;;;;;;;4.20;2.90;;;;;;;12.37;58.52;94963.34;5075673;28;20028;-72
2023/05/08 00:58:47;;;;;;;5.57;2.90;;;;;;;12.32;58.60;94960.34;5059145;28;20116;-72
2023/05/08 01:01:12;;;;;;;5.53;3.28;;;;;;;12.30;59.67;94974.31;5075578;28;20080;-72
2023/05/08 01:03:38;;;;;;;4.63;3.25;;;;;;;11.97;60.58;94930.38;5075404;28;20052;-72
2023/05/08 01:06:05;;;;;;;4.93;2.92;;;;;;;12.07;60.72;94976.31;5093593;28;20490;-73
2023/05/08 01:08:30;;;;;;;5.53;3.28;;;;;;;12.05;61.06;94975.59;5075646;28;20028;-72
2023/05/08 01:11:08;;;;;;;5.03;3.50;;;;;;;11.87;61.95;94984.16;5058791;28;20031;-72
2023/05/08 01:13:59;;;;;;;5.57;3.60;;;;;;;11.65;62.71;94980.78;5093528;28;20043;-72
2023/05/08 01:16:28;;;;;;;;;;;;;;;11.57;63.25;94989.22;5075879;28;20055;-72
2023/05/08 01:19:31;;;;;;;5.35;3.28;;;;;;;11.47;63.73;94993.53;5075300;28;20355;-72
2023/05/08 01:22:06;;;;;;;4.85;3.10;;;;;;;11.43;63.48;94979.16;5075149;28;20032;-72
2023/05/08 01:24:38;;;;;;;4.40;3.20;;;;;;;11.61;62.17;94990.59;5075763;28;20107;-73
2023/05/08 01:27:06;;;;;;;4.03;3.30;;;;;;;11.55;63.02;94985.91;5075215;28;20036;-72
2023/05/08 01:29:54;;;;;;;5.68;3.40;;;;;;;11.33;64.13;94986.06;5075093;28;20565;-72
2023/05/08 01:32:22;;;;;;;4.57;3.33;;;;;;;11.19;64.34;94988.00;5058448;28;20036;-72
2023/05/08 01:35:10;;;;;;;4.22;3.42;;;;;;;11.10;64.57;94975.78;5058649;28;20410;-73
2023/05/08 01:37:41;;;;;;;5.55;3.80;;;;;;;10.96;65.47;94997.69;5020593;28;20070;-72
2023/05/08 01:40:32;;;;;;;6.03;3.58;;;;;;;10.72;66.09;94989.28;5092948;28;20024;-73
2023/05/08 01:43:17;;;;;;;5.60;3.88;;;;;;;10.80;66.13;94983.47;5075097;28;20450;-72
2023/05/08 01:45:44;;;;;;;6.03;3.83;;;;;;;10.50;67.27;94964.19;5074815;28;20063;-72
2023/05/08 01:48:12;;;;;;;5.43;3.63;;;;;;;10.48;67.83;94966.94;5057316;28;20063;-73
2023/05/08 01:50:41;;;;;;;5.65;3.55;;;;;;;10.60;67.26;94961.72;5058143;28;20032;-72
2023/05/08 01:53:14;;;;;;;5.78;3.70;;;;;;;10.80;66.36;94968.72;5058514;28;20486;-72
2023/05/08 01:55:40;;;;;;;4.07;3.33;;;;;;;10.85;66.20;94968.34;5042281;28;20399;-73
2023/05/08 01:58:07;;;;;;;4.40;3.55;;;;;;;10.94;66.17;94970.19;5057943;28;20089;-72
2023/05/08 02:00:32;;;;;;;5.97;3.30;;;;;;;10.96;64.53;94948.31;5057771;28;20032;-72
2023/05/08 02:02:58;;;;;;;6.10;3.38;;;;;;;11.24;63.46;94973.81;5074447;28;20506;-72
2023/05/08 02:05:23;;;;;;;4.90;3.90;;;;;;;11.15;64.54;94971.03;5057712;28;20475;-72
2023/05/08 02:07:49;;;;;;;4.00;3.10;;;;;;;11.23;64.72;94979.94;5057420;28;20391;-72
2023/05/08 02:10:15;;;;;;;5.05;3.00;;;;;;;11.25;63.80;94963.28;5057792;28;20032;-73
2023/05/08 02:12:41;;;;;;;4.95;3.50;;;;;;;11.22;64.96;94968.72;5074385;28;20028;-72
2023/05/08 02:15:07;;;;;;;4.80;3.38;;;;;;;11.37;64.19;94966.66;5074179;28;20024;-72
2023/05/08 02:17:32;;;;;;;4.85;3.35;;;;;;;11.29;64.55;94953.47;5057644;28;20059;-73
2023/05/08 02:19:58;;;;;;;5.18;3.47;;;;;;;11.36;64.24;94962.38;5057523;28;20063;-72
2023/05/08 02:22:23;;;;;;;4.97;3.20;;;;;;;11.43;62.67;94965.31;5074200;28;20115;-72
2023/05/08 02:24:52;;;;;;;5.22;3.10;;;;;;;11.38;63.02;94968.28;5074006;28;20036;-72
2023/05/08 02:27:17;;;;;;;4.93;3.33;;;;;;;11.36;63.52;94972.78;5041574;28;20096;-72
2023/05/08 02:29:43;;;;;;;4.88;3.60;;;;;;;11.37;64.51;94972.69;5057378;28;20032;-73
2023/05/08 02:32:08;;;;;;;6.22;3.30;;;;;;;11.46;62.22;94981.47;5057330;28;20035;-73
2023/05/08 02:34:34;;;;;;;5.70;3.30;;;;;;;11.33;62.36;94965.25;5073909;28;20467;-72
2023/05/08 02:36:59;;;;;;;5.53;3.47;;;;;;;11.52;62.49;94970.56;5056975;28;20027;-72
2023/05/08 02:39:25;;;;;;;7.38;3.65;;;;;;;11.46;62.35;94965.06;5057109;28;20035;-72
2023/05/08 02:41:50;;;;;;;4.47;3.53;;;;;;;11.42;62.11;94969.66;5073591;28;20494;-72
2023/05/08 02:44:16;;;;;;;5.13;3.65;;;;;;;11.49;62.31;94964.78;5057048;28;20028;-72
2023/05/08 02:47:20;;;;;;;5.50;3.10;;;;;;;11.55;62.29;94983.31;5073658;28;20036;-72
2023/05/08 02:50:14;;;;;;;4.15;3.15;;;;;;;11.54;61.76;94979.06;5071654;28;20047;-73
2023/05/08 02:52:51;;;;;;;5.28;3.22;;;;;;;11.60;61.49;94977.72;5070363;28;20044;-72
2023/05/08 02:55:32;;;;;;;5.68;3.40;;;;;;;11.53;62.66;94974.81;5057006;28;20110;-73
2023/05/08 02:58:12;;;;;;;5.18;3.30;;;;;;;11.51;62.23;94979.31;5057459;28;20448;-72
2023/05/08 03:00:59;;;;;;;5.93;3.30;;;;;;;11.47;61.91;94964.91;5073247;28;20623;-73
2023/05/08 03:03:59;;;;;;;5.90;3.22;;;;;;;11.54;61.99;94983.44;5055103;28;20063;-72
2023/05/08 03:06:24;;;;;;;5.75;3.38;;;;;;;11.51;62.17;94987.13;5069959;28;20402;-73
2023/05/08 03:08:50;;;;;;;5.72;3.30;;;;;;;11.52;61.63;94980.97;5053299;28;20037;-72
2023/05/08 03:11:17;;;;;;;5.05;3.47;;;;;;;11.49;61.88;94968.22;5036575;28;20474;-72
2023/05/08 03:13:43;;;;;;;5.00;3.53;;;;;;;11.48;61.70;94970.94;5053233;28;20033;-73
2023/05/08 03:16:11;;;;;;;4.53;3.03;;;;;;;11.59;61.50;94973.50;5053183;28;20471;-72
2023/05/08 03:18:49;;;;;;;5.30;3.63;;;;;;;11.60;61.64;94983.75;5053240;28;20033;-72
2023/05/08 03:21:16;;;;;;;4.95;3.83;;;;;;;11.58;62.13;94990.84;5070866;28;20029;-72
2023/05/08 03:23:42;;;;;;;6.90;3.80;;;;;;;11.63;61.71;94993.06;5053251;28;20115;-73
2023/05/08 03:26:07;;;;;;;5.22;3.78;;;;;;;11.62;62.04;94997.47;5069576;28;20036;-72
2023/05/08 03:28:33;;;;;;;5.15;3.33;;;;;;;11.68;61.39;94987.50;5053014;28;20033;-72
2023/05/08 03:30:59;;;;;;;4.63;3.60;;;;;;;11.65;61.75;94995.56;5036337;28;20472;-72
2023/05/08 03:33:24;;;;;;;4.80;3.95;;;;;;;11.52;61.73;94977.53;5052982;28;20033;-73
2023/05/08 03:35:50;;;;;;;5.90;3.78;;;;;;;11.62;61.76;94994.84;5036073;28;20028;-72
2023/05/08 03:38:16;;;;;;;7.05;4.13;;;;;;;11.69;61.60;94995.16;5053015;28;20033;-72
2023/05/08 03:40:41;;;;;;;4.97;4.03;;;;;;;11.46;61.80;94978.88;5052782;28;20033;-72
2023/05/08 03:43:07;;;;;;;4.68;3.75;;;;;;;11.56;62.06;94986.72;5053161;28;20040;-72
2023/05/08 03:45:37;;;;;;;5.72;4.13;;;;;;;11.56;62.03;94981.53;5036095;28;20495;-72
2023/05/08 03:48:06;;;;;;;6.07;4.10;;;;;;;11.66;61.80;94992.00;5053245;28;20064;-72
2023/05/08 03:50:31;;;;;;;5.35;4.28;;;;;;;11.61;61.80;94985.38;5053085;28;20040;-73
2023/05/08 03:53:00;;;;;;;5.13;3.92;;;;;;;11.59;62.20;94996.91;5052840;28;20044;-73
2023/05/08 03:55:25;;;;;;;5.10;4.18;;;;;;;11.74;61.92;95002.59;5069453;28;20486;-73
2023/05/08 03:58:04;;;;;;;5.55;4.35;;;;;;;11.85;61.48;94998.16;5052745;28;20044;-73
2023/05/08 04:00:55;;;;;;;7.60;4.35;;;;;;;11.90;61.49;94989.13;5052487;28;20119;-72
2023/05/08 04:03:29;;;;;;;6.13;4.30;;;;;;;11.96;61.39;94997.25;5078198;28;20048;-73
2023/05/08 04:06:13;;;;;;;6.68;4.50;;;;;;;12.12;60.39;94977.69;5072513;28;20494;-72
2023/05/08 04:08:42;;;;;;;6.22;4.43;;;;;;;12.44;59.97;95003.56;5072996;28;20494;-73
2023/05/08 04:11:07;;;;;;;6.25;4.57;;;;;;;12.69;58.72;95010.88;5041842;28;20036;-72
2023/05/08 04:13:36;;;;;;;7.95;4.75;;;;;;;12.94;58.21;95000.88;5094608;28;20047;-72
2023/05/08 04:16:10;;;;;;;6.57;4.30;;;;;;;13.41;57.12;95014.06;5060045;28;20494;-72
2023/05/08 04:18:37;;;;;;;5.13;4.10;;;;;;;13.69;56.34;95017.59;5093248;28;20039;-72
2023/05/08 04:21:04;;;;;;;5.22;4.45;;;;;;;13.99;54.96;95008.72;5059885;28;20043;-72
2023/05/08 04:23:30;;;;;;;6.95;4.10;;;;;;;14.59;53.81;95015.31;5059794;28;20433;-73
2023/05/08 04:25:55;;;;;;;8.98;4.95;;;;;;;14.48;53.73;95014.50;5076177;28;20027;-73
2023/05/08 04:28:21;;;;;;;7.07;4.65;;;;;;;14.21;53.90;94976.16;5076300;28;20067;-73
2023/05/08 04:30:46;;;;;;;10.23;5.07;;;;;;;14.77;53.66;95028.44;5059607;28;20030;-73
2023/05/08 04:33:11;;;;;;;6.70;4.70;;;;;;;14.81;53.49;95014.09;5076429;28;20024;-73
2023/05/08 04:35:37;;;;;;;6.72;4.47;;;;;;;15.27;52.38;95018.28;5076163;28;20028;-73
2023/05/08 04:38:02;;;;;;;5.65;4.57;;;;;;;15.56;51.74;95027.69;5076334;28;20449;-73
2023/05/08 04:40:28;;;;;;;6.38;4.50;;;;;;;16.05;50.58;95015.75;5059297;28;20036;-73
2023/05/08 04:42:53;;;;;;;5.38;4.00;;;;;;;16.33;49.29;95010.31;5076181;28;20032;-73
2023/05/08 04:45:19;;;;;;;8.43;4.28;;;;;;;16.08;49.76;94994.47;5076059;28;20386;-73
2023/05/08 04:47:44;;;;;;;5.88;4.18;;;;;;;16.71;47.94;95005.50;5075993;28;20038;-73
2023/05/08 04:50:10;;;;;;;5.88;4.63;;;;;;;17.02;46.80;94991.84;5059198;28;20040;-73
2023/05/08 04:52:35;;;;;;;5.15;4.22;;;;;;;17.26;46.83;94999.75;5059276;28;20081;-73
2023/05/08 04:55:01;;;;;;;7.18;4.32;;;;;;;17.75;45.48;95002.34;5094200;28;20039;-73
2023/05/08 04:57:26;;;;;;;5.75;4.32;;;;;;;17.62;45.64;95009.91;5075904;28;20035;-73
2023/05/08 04:59:52;;;;;;;6.53;4.53;;;;;;;17.32;46.25;94998.25;5075693;28;20040;-73
2023/05/08 05:02:17;;;;;;;5.05;4.45;;;;;;;17.28;46.83;94989.91;5059056;28;20031;-73
2023/05/08 05:04:43;;;;;;;5.18;4.50;;;;;;;16.90;47.52;94983.47;5059110;28;20052;-73
2023/05/08 05:07:08;;;;;;;5.10;4.60;;;;;;;16.48;48.58;94984.31;5075484;28;20021;-73
2023/05/08 05:09:35;;;;;;;6.72;5.22;;;;;;;16.37;48.79;94988.03;5075607;28;20032;-73
2023/05/08 05:12:02;;;;;;;5.60;5.00;;;;;;;16.31;49.29;94999.16;5059440;28;20067;-73
2023/05/08 05:14:27;;;;;;;6.80;5.10;;;;;;;16.32;49.67;94995.56;5075441;28;20027;-73
2023/05/08 05:16:53;;;;;;;11.15;4.43;;;;;;;16.07;49.83;94998.09;5093630;28;20450;-73
2023/05/08 05:19:18;;;;;;;6.25;4.82;;;;;;;16.11;50.18;94984.66;5075380;28;20434;-73
2023/05/08 05:21:44;;;;;;;13.57;4.85;;;;;;;16.25;49.76;94984.88;5074991;28;20391;-73
2023/05/08 05:24:09;;;;;;;5.10;3.90;;;;;;;16.32;50.18;94990.31;5075449;28;20429;-73
2023/05/08 05:26:36;;;;;;;7.43;3.78;;;;;;;16.40;49.79;94987.72;5075222;28;20493;-73
2023/05/08 05:29:01;;;;;;;8.13;3.63;;;;;;;16.72;48.67;94983.56;5075312;28;20054;-74
2023/05/08 05:31:28;;;;;;;6.45;5.25;;;;;;;16.81;48.47;94974.75;5075060;28;20478;-73
2023/05/08 05:33:53;;;;;;;8.38;4.47;;;;;;;16.93;48.26;94991.81;5058619;28;20032;-73
2023/05/08 05:36:19;;;;;;;15.02;7.90;;;;;;;16.97;48.33;94987.91;5058327;28;20032;-73
2023/05/08 05:38:44;;;;;;;8.20;5.32;;;;;;;17.07;47.91;94977.25;5058509;28;20032;-74
2023/05/08 05:41:10;;;;;;;12.30;7.68;;;;;;;17.22;48.08;94989.72;5092914;28;20024;-73
2023/05/08 05:43:35;;;;;;;12.20;7.13;;;;;;;17.27;47.73;94975.13;5092976;28;20032;-73
2023/05/08 05:46:07;;;;;;;13.48;8.40;;;;;;;17.47;47.38;94974.78;5058118;28;20115;-73
2023/05/08 05:48:33;;;;;;;13.30;6.90;;;;;;;17.41;47.66;94976.25;5074852;28;20031;-73
2023/05/08 05:50:58;;;;;;;9.38;4.93;;;;;;;17.48;47.91;94994.81;5057924;28;20414;-73
2023/05/08 05:53:24;;;;;;;11.25;6.85;;;;;;;17.66;47.25;94990.19;5074754;28;20043;-73
2023/05/08 05:55:49;;;;;;;16.38;8.43;;;;;;;17.80;46.86;94986.94;5074505;28;20027;-73
2023/05/08 05:58:15;;;;;;;16.17;11.10;;;;;;;17.94;46.69;94982.81;5074613;28;20024;-73
2023/05/08 06:00:41;;;;;;;19.55;10.70;;;;;;;17.99;46.03;94982.28;5041274;28;20028;-73
2023/05/08 06:03:07;;;;;;;10.43;7.38;;;;;;;17.98;46.56;94967.50;5074116;28;20039;-73
2023/05/08 06:05:32;;;;;;;33.20;16.23;;;;;;;18.13;46.53;94984.22;5073448;28;20024;-73
2023/05/08 06:07:58;;;;;;;8.27;4.47;;;;;;;18.08;46.91;94984.75;5073869;28;20039;-74
2023/05/08 06:10:23;;;;;;;9.45;5.57;;;;;;;18.24;46.52;94969.88;5091498;28;20482;-73
2023/05/08 06:12:49;;;;;;;10.75;6.57;;;;;;;18.31;46.46;94971.66;5090564;28;20114;-73
2023/05/08 06:15:14;;;;;;;6.10;4.45;;;;;;;18.49;45.67;94963.53;5091585;28;20032;-73
2023/05/08 06:17:40;;;;;;;7.57;4.20;;;;;;;18.58;45.56;94964.28;5091772;28;20394;-73
2023/05/08 06:20:07;;;;;;;10.82;7.88;;;;;;;18.39;45.88;94943.72;5056770;28;20111;-72
2023/05/08 06:22:32;;;;;;;9.45;5.75;;;;;;;18.62;46.06;94965.59;5073383;28;20036;-73
2023/05/08 06:24:58;;;;;;;7.03;5.20;;;;;;;18.80;45.06;94965.34;5073364;28;20510;-73
2023/05/08 06:27:24;;;;;;;10.30;5.93;;;;;;;18.93;44.99;94967.44;5091607;28;20494;-73
2023/05/08 06:29:51;;;;;;;11.18;7.05;;;;;;;18.95;44.73;94958.38;5091198;28;20036;-73
2023/05/08 06:32:18;;;;;;;6.57;4.55;;;;;;;19.09;44.58;94967.31;5056851;28;20027;-73
2023/05/08 06:34:43;;;;;;;9.10;5.13;;;;;;;19.22;44.14;94963.28;5039240;28;20525;-73
2023/05/08 06:37:08;;;;;;;5.32;3.72;;;;;;;19.38;42.90;94963.16;5072930;28;20024;-74
2023/05/08 06:39:34;;;;;;;4.90;3.80;;;;;;;19.32;43.06;94961.22;5091024;28;20516;-73
2023/05/08 06:41:59;;;;;;;6.40;4.72;;;;;;;19.33;41.18;94921.53;5072973;28;20027;-73
2023/05/08 06:44:25;;;;;;;7.00;4.88;;;;;;;19.66;40.89;94960.78;5072926;28;20046;-73
2023/05/08 06:46:50;;;;;;;7.20;3.45;;;;;;;19.77;40.54;94967.44;5072891;28;20028;-73
2023/05/08 06:49:16;;;;;;;5.53;3.70;;;;;;;19.34;40.62;94969.78;5072895;28;20039;-73
2023/05/08 06:51:41;;;;;;;7.55;3.63;;;;;;;18.74;42.21;94971.31;5056008;28;20024;-73
2023/05/08 06:54:07;;;;;;;8.75;4.60;;;;;;;18.91;43.20;94964.97;5072797;28;20066;-73
2023/05/08 06:56:33;;;;;;;5.47;4.03;;;;;;;19.02;42.28;94961.09;5090775;28;20028;-73
2023/05/08 06:58:59;;;;;;;7.32;3.92;;;;;;;19.29;42.11;94964.22;5056186;28;20036;-72
2023/05/08 07:01:25;;;;;;;6.90;4.00;;;;;;;19.29;42.05;94957.13;5055874;28;20486;-72
2023/05/08 07:03:50;;;;;;;7.77;3.97;;;;;;;19.40;41.30;94961.16;5015291;28;1173706;-73
2023/05/08 07:06:15;;;;;;;5.95;4.63;;;;;;;19.56;41.96;94971.56;5090266;28;20294;-73
2023/05/08 07:08:41;;;;;;;6.13;4.00;;;;;;;19.71;41.61;94974.25;5091373;28;20032;-73
2023/05/08 07:11:08;;;;;;;6.03;4.18;;;;;;;19.30;43.12;94963.22;5073061;28;20738;-74
2023/05/08 07:13:34;;;;;;;6.53;4.10;;;;;;;17.94;45.07;94971.44;5073564;28;20040;-73
2023/05/08 07:16:00;;;;;;;6.80;4.30;;;;;;;18.12;45.56;94969.44;5073204;28;20421;-74
2023/05/08 07:18:25;;;;;;;7.35;4.10;;;;;;;18.58;44.14;94963.47;5073264;28;20036;-73
2023/05/08 07:20:51;;;;;;;7.22;3.95;;;;;;;18.58;43.95;94966.94;5090959;28;20028;-73
2023/05/08 07:23:16;;;;;;;6.95;3.90;;;;;;;18.77;43.71;94962.25;5072968;28;20028;-73
2023/05/08 07:25:42;;;;;;;4.95;4.13;;;;;;;18.89;43.67;94976.69;5073037;28;20452;-73
2023/05/08 07:28:07;;;;;;;5.40;4.20;;;;;;;18.33;43.98;94973.28;5091580;28;20444;-73
2023/05/08 07:30:33;;;;;;;5.15;3.67;;;;;;;18.49;44.48;94978.50;5072811;28;20035;-73
2023/05/08 07:32:58;;;;;;;6.95;4.07;;;;;;;18.88;43.93;94975.03;5091507;28;20066;-73
2023/05/08 07:35:24;;;;;;;5.43;4.10;;;;;;;18.47;44.57;94967.31;5091009;28;20403;-73
2023/05/08 07:37:49;;;;;;;8.93;4.20;;;;;;;18.83;44.28;94974.72;5072786;28;20471;-73
2023/05/08 07:40:15;;;;;;;8.95;4.18;;;;;;;19.01;43.44;94964.75;5090854;28;20051;-73
2023/05/08 07:42:40;;;;;;;6.63;4.10;;;;;;;19.18;42.63;94970.72;5056307;28;20020;-73
2023/05/08 07:45:07;;;;;;;6.10;4.03;;;;;;;19.66;41.75;94970.50;5071900;28;20127;-73
2023/05/08 07:47:33;;;;;;;9.45;5.03;;;;;;;19.98;41.99;94967.56;5089627;28;20024;-72
2023/05/08 07:49:58;;;;;;;8.25;4.03;;;;;;;20.24;41.45;94967.09;5091458;28;20082;-73
2023/05/08 07:52:24;;;;;;;7.40;4.70;;;;;;;20.25;41.47;94973.16;5055983;28;20524;-73
2023/05/08 07:54:49;;;;;;;8.10;5.00;;;;;;;20.02;41.55;94979.34;5072874;28;20656;-73
2023/05/08 07:57:15;;;;;;;7.45;4.47;;;;;;;20.21;41.42;94966.63;5072847;28;20368;-72
2023/05/08 07:59:40;;;;;;;6.28;4.78;;;;;;;20.56;40.60;94958.97;5090774;28;20028;-72
2023/05/08 08:02:06;;;;;;;9.85;4.97;;;;;;;20.78;39.96;94967.75;5072686;28;20035;-73
2023/05/08 08:04:31;;;;;;;10.10;5.05;;;;;;;20.69;40.19;94967.06;5072708;28;20503;-72
2023/05/08 08:06:57;;;;;;;6.50;4.85;;;;;;;20.92;39.52;94972.16;5089428;28;20107;-72
2023/05/08 08:09:22;;;;;;;14.07;6.30;;;;;;;20.95;39.35;94969.19;5054126;28;20502;-72
2023/05/08 08:11:48;;;;;;;9.75;6.07;;;;;;;20.87;39.86;94956.91;5053733;28;20047;-73
2023/05/08 08:14:13;;;;;;;11.68;5.55;;;;;;;20.97;39.54;94946.03;5053952;28;20052;-72
2023/05/08 08:16:39;;;;;;;9.48;6.72;;;;;;;21.27;39.67;94977.63;5089917;28;20029;-73
2023/05/08 08:19:04;;;;;;;11.55;6.43;;;;;;;21.33;39.70;94980.31;5089699;28;20058;-72
2023/05/08 08:21:30;;;;;;;9.75;6.20;;;;;;;21.53;38.78;94974.41;5071732;28;20043;-73
2023/05/08 08:23:56;;;;;;;11.43;6.07;;;;;;;21.28;38.58;94971.31;5071827;28;20029;-73
2023/05/08 08:26:21;;;;;;;8.85;5.85;;;;;;;21.51;39.47;94968.53;5071938;28;20040;-72
2023/05/08 08:28:47;;;;;;;8.63;6.13;;;;;;;21.52;39.84;94946.38;5090518;28;20028;-72
2023/05/08 08:31:12;;;;;;;8.75;6.45;;;;;;;21.74;37.86;94947.94;5072375;28;20070;-73
2023/05/08 08:33:37;;;;;;;11.43;5.97;;;;;;;22.00;38.19;94970.28;5072429;28;20043;-72
2023/05/08 08:36:03;;;;;;;9.38;6.82;;;;;;;22.12;37.89;94965.25;5071475;28;20406;-72
2023/05/08 08:38:28;;;;;;;7.30;6.45;;;;;;;22.17;37.36;94958.38;5055694;28;20502;-74
2023/05/08 08:40:54;;;;;;;7.75;6.13;;;;;;;21.93;37.84;94951.75;5072094;28;20028;-72
2023/05/08 08:43:19;;;;;;;10.80;6.47;;;;;;;21.89;37.77;94955.78;5072422;28;20032;-72
2023/05/08 08:45:45;;;;;;;9.13;6.97;;;;;;;21.83;38.46;94957.34;5072333;28;20497;-73
2023/05/08 08:48:13;;;;;;;10.73;6.90;;;;;;;21.53;37.84;94947.97;5072532;28;20032;-72
2023/05/08 08:50:41;;;;;;;12.27;7.90;;;;;;;21.15;39.19;94953.53;5056317;28;20028;-73
2023/05/08 08:53:11;;;;;;;11.45;7.45;;;;;;;21.47;39.23;94956.69;5090792;28;20055;-73
2023/05/08 08:55:39;;;;;;;10.07;7.32;;;;;;;21.57;38.33;94951.91;5072913;28;20034;-72
2023/05/08 08:58:23;;;;;;;8.10;6.50;;;;;;;21.44;38.37;94941.22;5094177;28;20220;-73
2023/05/08 09:00:49;;;;;;;8.80;6.47;;;;;;;21.47;38.11;94936.34;5042941;28;20034;-72
2023/05/08 09:03:15;;;;;;;9.52;6.38;;;;;;;21.48;38.68;94939.81;5058834;28;20040;-73
2023/05/08 09:05:40;;;;;;;10.07;6.60;;;;;;;21.37;38.96;94944.63;5059113;28;20111;-73
2023/05/08 09:08:06;;;;;;;8.65;6.25;;;;;;;21.37;38.35;94941.97;5059275;28;20101;-73
2023/05/08 09:10:32;;;;;;;7.28;5.85;;;;;;;20.82;39.10;94914.41;5075490;28;20107;-73
2023/05/08 09:12:57;;;;;;;7.90;6.05;;;;;;;21.05;39.74;94932.72;5058846;28;20109;-72
2023/05/08 09:15:23;;;;;;;8.43;5.70;;;;;;;21.20;40.25;94925.56;5058769;28;20482;-73
2023/05/08 09:17:48;;;;;;;9.75;6.07;;;;;;;21.12;40.47;94924.88;5075526;28;20456;-73
2023/05/08 09:20:15;;;;;;;11.25;6.07;;;;;;;20.68;40.76;94923.19;5093412;28;20471;-72
2023/05/08 09:22:40;;;;;;;10.68;6.38;;;;;;;20.75;40.79;94918.78;5075523;28;20031;-73
2023/05/08 09:25:06;;;;;;;9.77;6.75;;;;;;;20.57;41.23;94916.59;5075343;28;20032;-72
2023/05/08 09:27:31;;;;;;;6.57;5.57;;;;;;;20.58;41.30;94922.69;5093576;28;20032;-73
2023/05/08 09:30:05;;;;;;;7.65;5.80;;;;;;;20.49;41.31;94916.66;5092008;28;20062;-72
2023/05/08 09:32:31;;;;;;;7.45;5.32;;;;;;;20.52;41.83;94911.81;5058829;28;20380;-73
2023/05/08 09:34:56;;;;;;;8.90;5.95;;;;;;;20.51;42.63;94910.19;5058289;28;20111;-73
2023/05/08 09:37:22;;;;;;;11.30;6.15;;;;;;;20.10;43.98;94899.34;5058160;28;20119;-72
2023/05/08 09:39:48;;;;;;;8.80;6.63;;;;;;;20.03;43.98;94887.88;5058404;28;20414;-73
2023/05/08 09:42:14;;;;;;;9.50;5.72;;;;;;;20.00;43.99;94896.16;5058455;28;20039;-73
2023/05/08 09:44:44;;;;;;;6.82;6.15;;;;;;;19.81;43.91;94882.56;5058391;28;20028;-73
2023/05/08 09:47:11;;;;;;;10.43;5.70;;;;;;;19.73;44.66;94887.91;5075107;28;20032;-72
2023/05/08 09:49:38;;;;;;;7.10;5.68;;;;;;;19.53;44.88;94894.66;5074847;28;20099;-72
2023/05/08 09:52:04;;;;;;;9.02;5.47;;;;;;;19.64;45.33;94889.81;5074908;28;20491;-72
2023/05/08 09:54:29;;;;;;;5.97;5.15;;;;;;;19.64;45.11;94895.06;5058022;28;20041;-72
2023/05/08 09:56:54;;;;;;;11.25;6.10;;;;;;;19.63;45.38;94906.59;5074674;28;20490;-73
2023/05/08 09:59:27;;;;;;;11.57;7.40;;;;;;;19.71;44.34;94899.66;5057942;28;20444;-73
2023/05/08 10:01:53;;;;;;;12.98;6.28;;;;;;;19.78;44.00;94911.06;5058066;28;20422;-72
2023/05/08 10:04:32;;;;;;;8.93;6.43;;;;;;;19.95;44.40;94925.75;5074548;28;20051;-73
2023/05/08 10:06:57;;;;;;;13.23;6.82;;;;;;;20.02;44.14;94916.09;5092457;28;20028;-72
2023/05/08 10:09:23;;;;;;;7.65;5.95;;;;;;;20.16;43.41;94916.25;5073505;28;20089;-72
2023/05/08 10:11:51;;;;;;;15.35;6.53;;;;;;;20.29;43.26;94911.16;5092456;28;20028;-73
2023/05/08 10:14:16;;;;;;;11.70;6.80;;;;;;;20.42;43.46;94900.78;5074221;28;20027;-73
2023/05/08 10:16:43;;;;;;;9.15;5.47;;;;;;;20.47;43.00;94908.91;5074229;28;20452;-73
2023/05/08 10:19:12;;;;;;;7.75;5.57;;;;;;;20.59;42.45;94900.56;5074061;28;20031;-73
2023/05/08 10:21:38;;;;;;;11.93;6.05;;;;;;;20.70;42.61;94902.72;5074199;28;20044;-73
2023/05/08 10:24:06;;;;;;;10.57;6.15;;;;;;;20.86;42.79;94893.72;5057573;28;20023;-73
2023/05/08 10:26:32;;;;;;;10.52;6.22;;;;;;;21.05;42.81;94897.56;5073874;28;20028;-73
2023/05/08 10:28:58;;;;;;;8.93;5.55;;;;;;;21.05;42.28;94873.81;5057482;28;20077;-73
2023/05/08 10:31:24;;;;;;;7.63;5.60;;;;;;;21.21;42.45;94889.38;5073888;28;20375;-73
2023/05/08 10:33:50;;;;;;;7.97;5.47;;;;;;;21.33;41.30;94892.31;5057247;28;20024;-73
2023/05/08 10:36:16;;;;;;;7.60;6.07;;;;;;;20.90;41.73;94885.25;5057263;28;20039;-73
2023/05/08 10:38:41;;;;;;;8.60;5.88;;;;;;;21.06;41.81;94870.97;5073943;28;20024;-72
2023/05/08 10:41:06;;;;;;;11.10;5.60;;;;;;;21.07;41.92;94883.16;5057032;28;20113;-73
2023/05/08 10:43:32;;;;;;;10.70;5.93;;;;;;;21.11;42.31;94880.97;5073958;28;20402;-73
2023/05/08 10:45:57;;;;;;;8.60;6.07;;;;;;;21.18;42.31;94876.56;5073611;28;20077;-73
2023/05/08 10:48:43;;;;;;;10.73;5.82;;;;;;;21.41;41.41;94879.00;5056955;28;20061;-73
2023/05/08 10:51:15;;;;;;;6.97;5.75;;;;;;;21.52;41.36;94882.94;5057763;28;20039;-73
2023/05/08 10:53:50;;;;;;;10.80;5.65;;;;;;;21.58;42.15;94863.66;5073846;28;20060;-73
2023/05/08 10:56:15;;;;;;;8.38;5.63;;;;;;;21.82;42.16;94868.50;5040695;28;20078;-73
2023/05/08 10:58:41;;;;;;;12.75;5.88;;;;;;;21.88;40.75;94866.06;5091850;28;20024;-73
2023/05/08 11:01:06;;;;;;;7.88;5.57;;;;;;;21.32;41.68;94865.09;5073352;28;20032;-73
2023/05/08 11:03:39;;;;;;;13.30;5.85;;;;;;;21.41;42.32;94866.59;5091358;28;20044;-73
2023/05/08 11:06:04;;;;;;;7.32;5.53;;;;;;;21.63;41.93;94851.50;5091464;28;20565;-73
2023/05/08 11:08:31;;;;;;;9.48;6.38;;;;;;;21.67;41.28;94862.50;5056696;28;20036;-74
2023/05/08 11:11:06;;;;;;;10.25;6.28;;;;;;;21.32;42.58;94854.50;5073244;28;20042;-73
2023/05/08 11:13:33;;;;;;;8.23;5.97;;;;;;;21.25;42.56;94848.34;5073663;28;20027;-72
2023/05/08 11:15:59;;;;;;;8.38;5.38;;;;;;;21.46;42.22;94844.06;5056626;28;20031;-73
2023/05/08 11:18:24;;;;;;;12.27;5.70;;;;;;;21.82;42.76;94855.28;5073194;28;20024;-73
2023/05/08 11:20:57;;;;;;;8.02;5.63;;;;;;;21.99;43.16;94831.97;5056111;28;20107;-73
2023/05/08 11:23:26;;;;;;;7.00;5.20;;;;;;;22.13;41.60;94838.13;5073150;28;20107;-73
2023/05/08 11:26:02;;;;;;;8.00;5.82;;;;;;;22.26;41.61;94840.84;5091048;28;20110;-73
2023/05/08 11:28:31;;;;;;;8.63;5.90;;;;;;;22.50;41.00;94830.72;5057073;28;20031;-73
2023/05/08 11:31:02;;;;;;;7.00;5.43;;;;;;;22.50;39.95;94825.44;5091003;28;20024;-73
2023/05/08 11:33:31;;;;;;;6.47;5.20;;;;;;;22.57;39.29;94805.09;5073617;28;20185;-73